AAL134 KLAX-EGLL
Flight info
| Callsign | AAL134 |
|---|---|
| Flight time | N/A |
| Altitude | 35000 |
| Route | OSHNN1 BEALE Q842 WINEN DCT MLF DCT FBR DCT DIK Q945 OSMEE/N0492F370 Q945 SEGAP DCT 55N096W 61N090W 65N082W 67N070W/M083F370 DCT DARUB/M084F390 DCT 67N050W 67N040W 66N030W 64N020W DCT BALIX/N0483F390 DCT NINEX DCT AKOMU DCT VAMEB DCT NUGRA |
| Aircraft | B772/H-SDE2E3FGHIJ5LORVWXY/LB1D1 |
Departure
| Time | 2026-04-26 01:15 |
|---|---|
| Airport | Los Angeles International Airport (KLAX) |
Arrival
| Time | N/A |
|---|---|
| Airport | London Heathrow Airport (EGLL) |
| Time | Latitude | Longitude | Altitude | Speed | Heading |
|---|---|---|---|---|---|
| 2026-04-26 01:15 | 33.93322 | -118.44141 | 1814 ft | 185 kts | 262° |
| 2026-04-26 01:15 | 33.93039 | -118.45830 | 2224 ft | 201 kts | 244° |
| 2026-04-26 01:16 | 33.92200 | -118.47344 | 2667 ft | 216 kts | 232° |
| 2026-04-26 01:16 | 33.91273 | -118.48747 | 3049 ft | 231 kts | 232° |
| 2026-04-26 01:16 | 33.88240 | -118.53099 | 4455 ft | 256 kts | 230° |
| 2026-04-26 01:17 | 33.86761 | -118.54951 | 4952 ft | 260 kts | 215° |
| 2026-04-26 01:17 | 33.84955 | -118.55820 | 4991 ft | 259 kts | 188° |
| 2026-04-26 01:17 | 33.82970 | -118.55647 | 5005 ft | 259 kts | 171° |
| 2026-04-26 01:17 | 33.81440 | -118.55253 | 5005 ft | 258 kts | 169° |
| 2026-04-26 01:18 | 33.79964 | -118.54848 | 5082 ft | 261 kts | 168° |
| 2026-04-26 01:18 | 33.76324 | -118.53860 | 6551 ft | 258 kts | 167° |
| 2026-04-26 01:18 | 33.74268 | -118.53304 | 7292 ft | 260 kts | 167° |
| 2026-04-26 01:19 | 33.71954 | -118.52654 | 8100 ft | 262 kts | 161° |
| 2026-04-26 01:19 | 33.70123 | -118.51349 | 8817 ft | 265 kts | 136° |
| 2026-04-26 01:19 | 33.69141 | -118.49711 | 9389 ft | 268 kts | 117° |
| 2026-04-26 01:19 | 33.68571 | -118.48088 | 9883 ft | 269 kts | 112° |
| 2026-04-26 01:20 | 33.68084 | -118.46514 | 10335 ft | 270 kts | 111° |
| 2026-04-26 01:20 | 33.67407 | -118.44245 | 10976 ft | 271 kts | 110° |
| 2026-04-26 01:20 | 33.66605 | -118.41533 | 11726 ft | 273 kts | 110° |
| 2026-04-26 01:20 | 33.65990 | -118.39457 | 12281 ft | 275 kts | 110° |
| 2026-04-26 01:21 | 33.65448 | -118.37632 | 12737 ft | 277 kts | 110° |
| 2026-04-26 01:21 | 33.64912 | -118.35714 | 13207 ft | 280 kts | 106° |
| 2026-04-26 01:21 | 33.64527 | -118.33330 | 13769 ft | 284 kts | 97° |
| 2026-04-26 01:21 | 33.64449 | -118.31210 | 14238 ft | 287 kts | 92° |
| 2026-04-26 01:22 | 33.64522 | -118.24686 | 15595 ft | 296 kts | 87° |
| 2026-04-26 01:22 | 33.64862 | -118.22266 | 16088 ft | 302 kts | 79° |
| 2026-04-26 01:23 | 33.65395 | -118.20239 | 16498 ft | 307 kts | 72° |
| 2026-04-26 01:23 | 33.66119 | -118.18354 | 16874 ft | 312 kts | 65° |
| 2026-04-26 01:23 | 33.67108 | -118.16434 | 16996 ft | 319 kts | 57° |
| 2026-04-26 01:23 | 33.68257 | -118.14752 | 17005 ft | 320 kts | 50° |
| 2026-04-26 01:24 | 33.69562 | -118.13288 | 17013 ft | 321 kts | 42° |
| 2026-04-26 01:24 | 33.71019 | -118.11982 | 17170 ft | 330 kts | 39° |
| 2026-04-26 01:24 | 33.72193 | -118.10974 | 17451 ft | 333 kts | 39° |
| 2026-04-26 01:24 | 33.73386 | -118.09939 | 17555 ft | 341 kts | 39° |
| 2026-04-26 01:25 | 33.76339 | -118.07321 | 17696 ft | 363 kts | 40° |
| 2026-04-26 01:25 | 33.78004 | -118.05830 | 17764 ft | 375 kts | 40° |
| 2026-04-26 01:25 | 33.79361 | -118.04614 | 17817 ft | 384 kts | 40° |
| 2026-04-26 01:26 | 33.82167 | -118.02094 | 17897 ft | 401 kts | 39° |
| 2026-04-26 01:26 | 33.86405 | -117.98288 | 18168 ft | 419 kts | 39° |
| 2026-04-26 01:26 | 33.88312 | -117.96574 | 18486 ft | 421 kts | 39° |
| 2026-04-26 01:27 | 33.93181 | -117.92171 | 19289 ft | 427 kts | 40° |
| 2026-04-26 01:27 | 33.95867 | -117.89716 | 19719 ft | 430 kts | 40° |
| 2026-04-26 01:27 | 33.98045 | -117.87724 | 20064 ft | 433 kts | 39° |
| 2026-04-26 01:27 | 34.00557 | -117.85426 | 20454 ft | 436 kts | 39° |
| 2026-04-26 01:28 | 34.04378 | -117.81926 | 21047 ft | 440 kts | 39° |
| 2026-04-26 01:28 | 34.07169 | -117.79367 | 21467 ft | 443 kts | 40° |
| 2026-04-26 01:28 | 34.09089 | -117.77345 | 21734 ft | 443 kts | 47° |
| 2026-04-26 01:28 | 34.10681 | -117.75198 | 21965 ft | 444 kts | 52° |
| 2026-04-26 01:29 | 34.14199 | -117.69997 | 22629 ft | 448 kts | 53° |
| 2026-04-26 01:29 | 34.16112 | -117.67154 | 22970 ft | 450 kts | 53° |
| 2026-04-26 01:29 | 34.18250 | -117.63975 | 23326 ft | 454 kts | 53° |
| 2026-04-26 01:30 | 34.20135 | -117.61169 | 23647 ft | 456 kts | 53° |
| 2026-04-26 01:30 | 34.22771 | -117.57246 | 24089 ft | 460 kts | 53° |
| 2026-04-26 01:30 | 34.25087 | -117.53796 | 24483 ft | 463 kts | 53° |
| 2026-04-26 01:30 | 34.26825 | -117.51206 | 24773 ft | 465 kts | 53° |
| 2026-04-26 01:31 | 34.28811 | -117.48244 | 25078 ft | 468 kts | 53° |
| 2026-04-26 01:31 | 34.32450 | -117.42810 | 25645 ft | 473 kts | 53° |
| 2026-04-26 01:31 | 34.34584 | -117.39620 | 25969 ft | 476 kts | 53° |
| 2026-04-26 01:32 | 34.37267 | -117.35606 | 26378 ft | 478 kts | 53° |
| 2026-04-26 01:32 | 34.39385 | -117.32433 | 26745 ft | 479 kts | 53° |
| 2026-04-26 01:32 | 34.41115 | -117.29839 | 27009 ft | 481 kts | 53° |
| 2026-04-26 01:32 | 34.43416 | -117.26388 | 27309 ft | 484 kts | 53° |
| 2026-04-26 01:33 | 34.45795 | -117.22815 | 27600 ft | 487 kts | 53° |
| 2026-04-26 01:33 | 34.48100 | -117.19349 | 27896 ft | 489 kts | 53° |
| 2026-04-26 01:33 | 34.53227 | -117.11631 | 28501 ft | 495 kts | 53° |
| 2026-04-26 01:34 | 34.55550 | -117.08157 | 28762 ft | 498 kts | 52° |
| 2026-04-26 01:34 | 34.57593 | -117.05186 | 28944 ft | 501 kts | 52° |
| 2026-04-26 01:34 | 34.59903 | -117.01833 | 29086 ft | 506 kts | 52° |
| 2026-04-26 01:34 | 34.62596 | -116.97920 | 29280 ft | 510 kts | 52° |
| 2026-04-26 01:35 | 34.65160 | -116.94186 | 29404 ft | 516 kts | 52° |
| 2026-04-26 01:35 | 34.67797 | -116.90341 | 29550 ft | 521 kts | 51° |
| 2026-04-26 01:35 | 34.70329 | -116.86643 | 29730 ft | 525 kts | 51° |
| 2026-04-26 01:35 | 34.72249 | -116.83836 | 29913 ft | 527 kts | 51° |
| 2026-04-26 01:36 | 34.74744 | -116.80184 | 30187 ft | 528 kts | 51° |
| 2026-04-26 01:36 | 34.77874 | -116.75597 | 30593 ft | 528 kts | 51° |
| 2026-04-26 01:36 | 34.80196 | -116.72190 | 30929 ft | 527 kts | 51° |
| 2026-04-26 01:37 | 34.84837 | -116.65367 | 31595 ft | 526 kts | 51° |
| 2026-04-26 01:37 | 34.87196 | -116.61990 | 31924 ft | 526 kts | 49° |
| 2026-04-26 01:37 | 34.89604 | -116.58784 | 32245 ft | 526 kts | 47° |
| 2026-04-26 01:37 | 34.92104 | -116.55477 | 32687 ft | 523 kts | 47° |
| 2026-04-26 01:38 | 34.94542 | -116.52245 | 33260 ft | 517 kts | 47° |
| 2026-04-26 01:38 | 34.96954 | -116.49036 | 33799 ft | 511 kts | 47° |
| 2026-04-26 01:38 | 34.99335 | -116.45863 | 33925 ft | 512 kts | 47° |
| 2026-04-26 01:39 | 35.04042 | -116.39566 | 33926 ft | 498 kts | 47° |
| 2026-04-26 01:39 | 35.08691 | -116.33327 | 33926 ft | 498 kts | 47° |
| 2026-04-26 01:40 | 35.13331 | -116.27085 | 33922 ft | 497 kts | 47° |
| 2026-04-26 01:40 | 35.17956 | -116.20850 | 33923 ft | 497 kts | 47° |
| 2026-04-26 01:41 | 35.22576 | -116.14608 | 33923 ft | 497 kts | 47° |
| 2026-04-26 01:41 | 35.27183 | -116.08372 | 33923 ft | 497 kts | 47° |
| 2026-04-26 01:42 | 35.31816 | -116.02089 | 33923 ft | 497 kts | 47° |
| 2026-04-26 01:42 | 35.36416 | -115.95838 | 33923 ft | 497 kts | 47° |
| 2026-04-26 01:43 | 35.41041 | -115.89542 | 33923 ft | 497 kts | 47° |
| 2026-04-26 01:43 | 35.45634 | -115.83278 | 33916 ft | 497 kts | 47° |
| 2026-04-26 01:44 | 35.50268 | -115.76945 | 33908 ft | 497 kts | 47° |
| 2026-04-26 01:44 | 35.54856 | -115.70666 | 33901 ft | 498 kts | 47° |